Sovereign — ZGBZ4 — position and weather

sailwx.info

Track history (hours):
 
Tides and Currents Weather Stations Pressure Air Temp Water Temp Dewpoint Dewpoint Depression Visibility Wind Speed Wind Dir Waves Ship Positions

Sovereign

Last reported at 2015-Feb-09 21:31 UTC. Time now 2015-Mar-04 20:23 UTC.
Position N 18°02' W 063°05'.
Warning: this ship's position is 22 days out of date.

Length 55 m; draft 3 m.

Type: Pleasure craft. MMSI: 319931000.

Date/timePositionNaut miles runAvg speedWind from/ knotsBaromVisibWave heightAir tempDewpointWater temp
2015-Feb-09 21:31N 18°02' W 063°05'0 0.0
2015-Feb-09 20:28N 18°02' W 063°05'0 0.0
2015-Feb-09 19:31N 18°02' W 063°05'0 0.0
2015-Feb-09 18:19N 18°02' W 063°05'0 0.0
2015-Feb-09 17:19N 18°02' W 063°05'0 0.0
2015-Feb-09 16:10N 18°02' W 063°05'0 0.0
2015-Feb-09 14:25N 18°02' W 063°05'0 0.0
2015-Feb-09 13:25N 18°02' W 063°05'0 0.0
2015-Feb-09 03:22N 18°02' W 063°05'0 0.0
2015-Feb-09 02:19N 18°02' W 063°05'0 0.0
2015-Feb-09 01:22N 18°02' W 063°05'0 0.0
2015-Feb-08 23:10N 18°02' W 063°05'0 0.0
2015-Feb-08 22:25N 18°02' W 063°05'0 0.0
2015-Feb-08 19:28N 18°02' W 063°05'0 0.0
2015-Feb-08 18:28N 18°02' W 063°05'0 0.0
2015-Feb-08 17:31N 18°02' W 063°05'0 0.0
2015-Feb-08 16:31N 18°02' W 063°05'0 0.0
2015-Feb-08 15:31N 18°02' W 063°05'0 0.0
2015-Feb-08 14:31N 18°02' W 063°05'0 0.0
2015-Feb-08 13:31N 18°02' W 063°05'0 0.0
2015-Feb-08 12:22N 18°02' W 063°05'0 0.0
2015-Feb-08 11:31N 18°02' W 063°05'0 0.0
2015-Feb-08 10:22N 18°02' W 063°05'0 0.0
2015-Feb-08 09:25N 18°02' W 063°05'0 0.0
2015-Feb-08 08:25N 18°02' W 063°05'0 0.0
2015-Feb-08 07:28N 18°02' W 063°05'0 0.0
2015-Feb-08 06:25N 18°02' W 063°05'0 0.0
2015-Feb-08 05:28N 18°02' W 063°05'0 0.0
2015-Feb-08 04:28N 18°02' W 063°05'0 0.0
2015-Feb-08 03:31N 18°02' W 063°05'0 0.0
2015-Feb-08 02:31N 18°02' W 063°05'0 0.0
2015-Feb-08 01:31N 18°02' W 063°05'0 0.0
2015-Feb-08 00:31N 18°02' W 063°05'0 0.0
2015-Feb-07 23:31N 18°02' W 063°05'0 0.0
2015-Feb-07 22:31N 18°02' W 063°05'0 0.0
2015-Feb-07 21:34N 18°02' W 063°05'0 0.0
2015-Feb-07 20:07N 18°02' W 063°05'0 0.0
2015-Feb-07 19:19N 18°02' W 063°05'0 0.0
2015-Feb-07 18:25N 18°02' W 063°05'0 0.0
2015-Feb-07 17:25N 18°02' W 063°05'0 0.0
2015-Feb-07 16:22N 18°02' W 063°05'1 0.6
2015-Feb-07 15:33N 18°02' W 063°06'0 0.4
2015-Feb-07 14:31N 18°02' W 063°06'0 0.3
2015-Feb-07 13:33N 18°02' W 063°07'4 3.6
2015-Feb-07 12:33N 18°01' W 063°10'9 9.1
2015-Feb-07 11:33N 18°02' W 063°20'9 9.3
2015-Feb-07 10:33N 18°03' W 063°30'  
2015-Feb-02 22:22N 25°38' W 079°56'910.8
2015-Feb-02 21:33N 25°47' W 079°59'1111.5
2015-Feb-02 20:33N 25°58' W 080°02'10 9.7
2015-Feb-02 19:33N 26°06' W 080°07'1 0.8
2015-Feb-02 18:27N 26°07' W 080°07'0 0.0
2015-Feb-02 17:27N 26°07' W 080°07'0 0.0
2015-Feb-02 16:27N 26°07' W 080°07'0 0.0
2015-Feb-02 15:30N 26°07' W 080°07'0 0.0
2015-Feb-02 14:30N 26°07' W 080°07'0 0.0
2015-Feb-02 13:33N 26°07' W 080°07'0 0.0
2015-Feb-02 12:33N 26°07' W 080°07'0 0.0
2015-Feb-02 11:33N 26°07' W 080°07'0 0.0
2015-Feb-02 10:33N 26°07' W 080°07'0 0.0
2015-Feb-02 09:33N 26°07' W 080°07'0 0.0
2015-Feb-02 08:33N 26°07' W 080°07'0 0.0
2015-Feb-02 07:33N 26°07' W 080°07'0 0.0
2015-Feb-02 06:33N 26°07' W 080°07'0 0.0
2015-Feb-02 05:24N 26°07' W 080°07'0 0.0
2015-Feb-02 04:21N 26°07' W 080°07'0 0.0
2015-Feb-02 03:24N 26°07' W 080°07'0 0.0
2015-Feb-02 02:27N 26°07' W 080°07'0 0.0
2015-Feb-02 01:30N 26°07' W 080°07'0 0.0
2015-Feb-02 00:30N 26°07' W 080°07'0 0.0
2015-Feb-01 23:30N 26°07' W 080°07'0 0.0
2015-Feb-01 22:30N 26°07' W 080°07'0 0.0
2015-Feb-01 21:30N 26°07' W 080°07'0 0.0
2015-Feb-01 20:30N 26°07' W 080°07'0 0.0
2015-Feb-01 19:33N 26°07' W 080°07'0 0.0
2015-Feb-01 18:33N 26°07' W 080°07'0 0.0
2015-Feb-01 17:33N 26°07' W 080°07'0 0.0
2015-Feb-01 16:33N 26°07' W 080°07'0 0.0
2015-Feb-01 15:33N 26°07' W 080°07'0 0.0
2015-Feb-01 14:32N 26°07' W 080°07'0 0.0
2015-Feb-01 13:27N 26°07' W 080°07'0 0.0
2015-Feb-01 12:27N 26°07' W 080°07'0 0.0
2015-Feb-01 11:27N 26°07' W 080°07'0 0.0
2015-Feb-01 10:30N 26°07' W 080°07'0 0.0
2015-Feb-01 09:29N 26°07' W 080°07'0 0.0
2015-Feb-01 08:30N 26°07' W 080°07'0 0.0
2015-Feb-01 07:30N 26°07' W 080°07'0 0.0
2015-Feb-01 06:29N 26°07' W 080°07'0 0.0
2015-Feb-01 05:32N 26°07' W 080°07'0 0.0
2015-Feb-01 04:33N 26°07' W 080°07'0 0.0
2015-Feb-01 03:20N 26°07' W 080°07'0 0.0
2015-Feb-01 02:33N 26°07' W 080°07'0 0.0
2015-Feb-01 01:32N 26°07' W 080°07'0 0.0
2015-Feb-01 00:32N 26°07' W 080°07'0 0.0
2015-Jan-31 23:32N 26°07' W 080°07'0 0.0
2015-Jan-31 22:27N 26°07' W 080°07'0 0.0
2015-Jan-31 21:26N 26°07' W 080°07'0 0.0
2015-Jan-31 20:26N 26°07' W 080°07'0 0.0
2015-Jan-31 19:26N 26°07' W 080°07'0 0.0
2015-Jan-31 18:29N 26°07' W 080°07'0 0.0
2015-Jan-31 17:29N 26°07' W 080°07'0 0.0
2015-Jan-31 16:32N 26°07' W 080°07'0 0.0
2015-Jan-31 15:29N 26°07' W 080°07'0 0.0
2015-Jan-31 14:32N 26°07' W 080°07'0 0.0
2015-Jan-31 13:32N 26°07' W 080°07'0 0.0
2015-Jan-31 12:32N 26°07' W 080°07'0 0.0
2015-Jan-31 11:32N 26°07' W 080°07'0 0.0
2015-Jan-31 10:32N 26°07' W 080°07'0 0.0
2015-Jan-31 09:23N 26°07' W 080°07'0 0.0
2015-Jan-31 08:23N 26°07' W 080°07'0 0.0
2015-Jan-31 07:26N 26°07' W 080°07'0 0.0
2015-Jan-31 06:23N 26°07' W 080°07'0 0.0
2015-Jan-31 05:26N 26°07' W 080°07'0 0.0
2015-Jan-31 04:26N 26°07' W 080°07'0 0.0
2015-Jan-31 03:29N 26°07' W 080°07'0 0.0
2015-Jan-31 02:29N 26°07' W 080°07'0 0.0
2015-Jan-31 01:32N 26°07' W 080°07'0 0.0
2015-Jan-31 00:32N 26°07' W 080°07'0 0.0
2015-Jan-30 23:32N 26°07' W 080°07'0 0.0
2015-Jan-30 22:32N 26°07' W 080°07'0 0.0
2015-Jan-30 21:32N 26°07' W 080°07'  
Track history (hours):
 
Tides and Currents Weather Stations Pressure Air Temp Water Temp Dewpoint Dewpoint Depression Visibility Wind Speed Wind Dir Waves Ship Positions

Sovereign

Last reported at 2015-Feb-09 21:31 UTC. Time now 2015-Mar-04 20:23 UTC.
Position N 18°02' W 063°05'.
Warning: this ship's position is 22 days out of date.

Length 55 m; draft 3 m.

Type: Pleasure craft. MMSI: 319931000.

Date/timePositionNaut miles runAvg speedWind from/ knotsBaromVisibWave heightAir tempDewpointWater temp
2015-Feb-09 21:31N 18°02' W 063°05'0 0.0
2015-Feb-09 20:28N 18°02' W 063°05'0 0.0
2015-Feb-09 19:31N 18°02' W 063°05'0 0.0
2015-Feb-09 18:19N 18°02' W 063°05'0 0.0
2015-Feb-09 17:19N 18°02' W 063°05'0 0.0
2015-Feb-09 16:10N 18°02' W 063°05'0 0.0
2015-Feb-09 14:25N 18°02' W 063°05'0 0.0
2015-Feb-09 13:25N 18°02' W 063°05'0 0.0
2015-Feb-09 03:22N 18°02' W 063°05'0 0.0
2015-Feb-09 02:19N 18°02' W 063°05'0 0.0
2015-Feb-09 01:22N 18°02' W 063°05'0 0.0
2015-Feb-08 23:10N 18°02' W 063°05'0 0.0
2015-Feb-08 22:25N 18°02' W 063°05'0 0.0
2015-Feb-08 19:28N 18°02' W 063°05'0 0.0
2015-Feb-08 18:28N 18°02' W 063°05'0 0.0
2015-Feb-08 17:31N 18°02' W 063°05'0 0.0
2015-Feb-08 16:31N 18°02' W 063°05'0 0.0
2015-Feb-08 15:31N 18°02' W 063°05'0 0.0
2015-Feb-08 14:31N 18°02' W 063°05'0 0.0
2015-Feb-08 13:31N 18°02' W 063°05'0 0.0
2015-Feb-08 12:22N 18°02' W 063°05'0 0.0
2015-Feb-08 11:31N 18°02' W 063°05'0 0.0
2015-Feb-08 10:22N 18°02' W 063°05'0 0.0
2015-Feb-08 09:25N 18°02' W 063°05'0 0.0
2015-Feb-08 08:25N 18°02' W 063°05'0 0.0
2015-Feb-08 07:28N 18°02' W 063°05'0 0.0
2015-Feb-08 06:25N 18°02' W 063°05'0 0.0
2015-Feb-08 05:28N 18°02' W 063°05'0 0.0
2015-Feb-08 04:28N 18°02' W 063°05'0 0.0
2015-Feb-08 03:31N 18°02' W 063°05'0 0.0
2015-Feb-08 02:31N 18°02' W 063°05'0 0.0
2015-Feb-08 01:31N 18°02' W 063°05'0 0.0
2015-Feb-08 00:31N 18°02' W 063°05'0 0.0
2015-Feb-07 23:31N 18°02' W 063°05'0 0.0
2015-Feb-07 22:31N 18°02' W 063°05'0 0.0
2015-Feb-07 21:34N 18°02' W 063°05'0 0.0
2015-Feb-07 20:07N 18°02' W 063°05'0 0.0
2015-Feb-07 19:19N 18°02' W 063°05'0 0.0
2015-Feb-07 18:25N 18°02' W 063°05'0 0.0
2015-Feb-07 17:25N 18°02' W 063°05'0 0.0
2015-Feb-07 16:22N 18°02' W 063°05'1 0.6
2015-Feb-07 15:33N 18°02' W 063°06'0 0.4
2015-Feb-07 14:31N 18°02' W 063°06'0 0.3
2015-Feb-07 13:33N 18°02' W 063°07'4 3.6
2015-Feb-07 12:33N 18°01' W 063°10'9 9.1
2015-Feb-07 11:33N 18°02' W 063°20'9 9.3
2015-Feb-07 10:33N 18°03' W 063°30'  
2015-Feb-02 22:22N 25°38' W 079°56'910.8
2015-Feb-02 21:33N 25°47' W 079°59'1111.5
2015-Feb-02 20:33N 25°58' W 080°02'10 9.7
2015-Feb-02 19:33N 26°06' W 080°07'1 0.8
2015-Feb-02 18:27N 26°07' W 080°07'0 0.0
2015-Feb-02 17:27N 26°07' W 080°07'0 0.0
2015-Feb-02 16:27N 26°07' W 080°07'0 0.0
2015-Feb-02 15:30N 26°07' W 080°07'0 0.0
2015-Feb-02 14:30N 26°07' W 080°07'0 0.0
2015-Feb-02 13:33N 26°07' W 080°07'0 0.0
2015-Feb-02 12:33N 26°07' W 080°07'0 0.0
2015-Feb-02 11:33N 26°07' W 080°07'0 0.0
2015-Feb-02 10:33N 26°07' W 080°07'0 0.0
2015-Feb-02 09:33N 26°07' W 080°07'0 0.0
2015-Feb-02 08:33N 26°07' W 080°07'0 0.0
2015-Feb-02 07:33N 26°07' W 080°07'0 0.0
2015-Feb-02 06:33N 26°07' W 080°07'0 0.0
2015-Feb-02 05:24N 26°07' W 080°07'0 0.0
2015-Feb-02 04:21N 26°07' W 080°07'0 0.0
2015-Feb-02 03:24N 26°07' W 080°07'0 0.0
2015-Feb-02 02:27N 26°07' W 080°07'0 0.0
2015-Feb-02 01:30N 26°07' W 080°07'0 0.0
2015-Feb-02 00:30N 26°07' W 080°07'0 0.0
2015-Feb-01 23:30N 26°07' W 080°07'0 0.0
2015-Feb-01 22:30N 26°07' W 080°07'0 0.0
2015-Feb-01 21:30N 26°07' W 080°07'0 0.0
2015-Feb-01 20:30N 26°07' W 080°07'0 0.0
2015-Feb-01 19:33N 26°07' W 080°07'0 0.0
2015-Feb-01 18:33N 26°07' W 080°07'0 0.0
2015-Feb-01 17:33N 26°07' W 080°07'0 0.0
2015-Feb-01 16:33N 26°07' W 080°07'0 0.0
2015-Feb-01 15:33N 26°07' W 080°07'0 0.0
2015-Feb-01 14:32N 26°07' W 080°07'0 0.0
2015-Feb-01 13:27N 26°07' W 080°07'0 0.0
2015-Feb-01 12:27N 26°07' W 080°07'0 0.0
2015-Feb-01 11:27N 26°07' W 080°07'0 0.0
2015-Feb-01 10:30N 26°07' W 080°07'0 0.0
2015-Feb-01 09:29N 26°07' W 080°07'0 0.0
2015-Feb-01 08:30N 26°07' W 080°07'0 0.0
2015-Feb-01 07:30N 26°07' W 080°07'0 0.0
2015-Feb-01 06:29N 26°07' W 080°07'0 0.0
2015-Feb-01 05:32N 26°07' W 080°07'0 0.0
2015-Feb-01 04:33N 26°07' W 080°07'0 0.0
2015-Feb-01 03:20N 26°07' W 080°07'0 0.0
2015-Feb-01 02:33N 26°07' W 080°07'0 0.0
2015-Feb-01 01:32N 26°07' W 080°07'0 0.0
2015-Feb-01 00:32N 26°07' W 080°07'0 0.0
2015-Jan-31 23:32N 26°07' W 080°07'0 0.0
2015-Jan-31 22:27N 26°07' W 080°07'0 0.0
2015-Jan-31 21:26N 26°07' W 080°07'0 0.0
2015-Jan-31 20:26N 26°07' W 080°07'0 0.0
2015-Jan-31 19:26N 26°07' W 080°07'0 0.0
2015-Jan-31 18:29N 26°07' W 080°07'0 0.0
2015-Jan-31 17:29N 26°07' W 080°07'0 0.0
2015-Jan-31 16:32N 26°07' W 080°07'0 0.0
2015-Jan-31 15:29N 26°07' W 080°07'0 0.0
2015-Jan-31 14:32N 26°07' W 080°07'0 0.0
2015-Jan-31 13:32N 26°07' W 080°07'0 0.0
2015-Jan-31 12:32N 26°07' W 080°07'0 0.0
2015-Jan-31 11:32N 26°07' W 080°07'0 0.0
2015-Jan-31 10:32N 26°07' W 080°07'0 0.0
2015-Jan-31 09:23N 26°07' W 080°07'0 0.0
2015-Jan-31 08:23N 26°07' W 080°07'0 0.0
2015-Jan-31 07:26N 26°07' W 080°07'0 0.0
2015-Jan-31 06:23N 26°07' W 080°07'0 0.0
2015-Jan-31 05:26N 26°07' W 080°07'0 0.0
2015-Jan-31 04:26N 26°07' W 080°07'0 0.0
2015-Jan-31 03:29N 26°07' W 080°07'0 0.0
2015-Jan-31 02:29N 26°07' W 080°07'0 0.0
2015-Jan-31 01:32N 26°07' W 080°07'0 0.0
2015-Jan-31 00:32N 26°07' W 080°07'0 0.0
2015-Jan-30 23:32N 26°07' W 080°07'0 0.0
2015-Jan-30 22:32N 26°07' W 080°07'0 0.0
2015-Jan-30 21:32N 26°07' W 080°07'  

Dump ship's entire track history